Time;durP1;ratioP1;P1;durP2;ratioP2;P2;SDS_P1;SDS_P2;PMS_P1;PMS_P2;Temp;Humidity;BMP_temperature;BMP_pressure;BME280_temperature;BME280_humidity;BME280_pressure;Samples;Min_cycle;Max_cycle;Signal;HPM_P1;HPM_P2
2023/08/07 00:00:45;;;;;;;7.57;2.70;;;14.20;99.90;;;;;;5071753;28;20567;-51
2023/08/07 00:03:18;;;;;;;2.40;2.20;;;14.20;99.90;;;;;;5070986;28;20910;-51
2023/08/07 00:05:45;;;;;;;3.50;3.20;;;14.20;99.90;;;;;;5064117;28;20895;-52
2023/08/07 00:08:13;;;;;;;8.20;2.77;;;14.20;99.90;;;;;;5064879;28;20543;-51
2023/08/07 00:10:40;;;;;;;2.70;2.20;;;14.20;99.90;;;;;;5066260;28;20560;-50
2023/08/07 00:13:07;;;;;;;3.20;2.40;;;14.20;99.90;;;;;;5072309;28;20453;-51
2023/08/07 00:15:34;;;;;;;5.30;2.57;;;14.30;99.90;;;;;;5072224;28;20532;-51
2023/08/07 00:18:00;;;;;;;5.23;2.40;;;14.30;99.90;;;;;;5072986;28;21024;-52
2023/08/07 00:20:27;;;;;;;3.60;2.67;;;14.30;99.90;;;;;;5071946;28;20503;-52
2023/08/07 00:22:53;;;;;;;5.73;3.17;;;14.30;99.90;;;;;;5066823;28;20921;-51
2023/08/07 00:25:21;;;;;;;6.83;2.90;;;14.40;99.90;;;;;;5065701;28;20484;-52
2023/08/07 00:27:48;;;;;;;5.90;2.83;;;14.30;99.90;;;;;;5073028;28;20469;-51
2023/08/07 00:30:14;;;;;;;2.80;1.87;;;14.30;99.90;;;;;;5067540;28;20500;-50
2023/08/07 00:32:41;;;;;;;4.57;2.23;;;14.40;99.90;;;;;;5072515;28;20476;-51
2023/08/07 00:35:08;;;;;;;4.60;2.63;;;14.30;99.90;;;;;;5071976;28;20486;-52
2023/08/07 00:37:35;;;;;;;3.20;2.70;;;14.30;99.90;;;;;;5069071;28;20480;-51
2023/08/07 00:40:02;;;;;;;4.27;2.73;;;14.30;99.90;;;;;;5066014;28;20503;-50
2023/08/07 00:42:29;;;;;;;3.60;3.27;;;14.30;99.90;;;;;;5070271;28;20481;-52
2023/08/07 00:44:56;;;;;;;3.27;2.60;;;14.30;99.90;;;;;;5070477;28;20548;-51
2023/08/07 00:47:22;;;;;;;6.30;2.50;;;14.30;99.90;;;;;;5072216;28;20553;-52
2023/08/07 00:49:49;;;;;;;3.03;2.73;;;14.30;99.90;;;;;;5070760;28;20555;-51
2023/08/07 00:52:16;;;;;;;3.63;3.20;;;14.30;99.90;;;;;;5064866;28;20576;-53
2023/08/07 00:54:43;;;;;;;6.10;2.83;;;14.30;99.90;;;;;;5071726;28;20479;-51
2023/08/07 00:57:12;;;;;;;9.00;2.50;;;14.40;99.90;;;;;;5070092;28;20634;-50
2023/08/07 00:59:40;;;;;;;8.00;3.13;;;14.30;99.90;;;;;;5070444;28;20627;-52
2023/08/07 01:02:07;;;;;;;3.50;2.73;;;14.30;99.90;;;;;;5072452;28;20471;-52
2023/08/07 01:04:34;;;;;;;2.97;2.30;;;14.30;99.90;;;;;;5074400;28;20457;-52
2023/08/07 01:07:00;;;;;;;3.70;2.70;;;14.30;99.90;;;;;;5075771;28;20507;-51
2023/08/07 01:09:27;;;;;;;7.60;3.30;;;14.30;99.90;;;;;;5069394;28;20468;-52
2023/08/07 01:12:10;;;;;;;4.33;2.70;;;14.30;99.90;;;;;;5068631;28;20515;-51
2023/08/07 01:14:42;;;;;;;6.73;2.70;;;14.20;99.90;;;;;;5068771;28;20510;-51
2023/08/07 01:17:12;;;;;;;10.63;3.40;;;14.20;99.90;;;;;;5069187;28;20476;-52
2023/08/07 01:19:40;;;;;;;6.93;2.63;;;14.20;99.90;;;;;;5071373;28;20469;-52
2023/08/07 01:22:08;;;;;;;3.67;2.67;;;14.20;99.90;;;;;;5067920;28;20572;-51
2023/08/07 01:24:35;;;;;;;3.03;2.60;;;14.10;99.90;;;;;;5069895;28;20497;-52
2023/08/07 01:27:15;;;;;;;2.47;2.27;;;14.10;99.90;;;;;;5068348;28;20520;-51
2023/08/07 01:29:52;;;;;;;4.17;3.07;;;14.10;99.90;;;;;;5062218;28;20536;-51
2023/08/07 01:32:24;;;;;;;4.70;3.00;;;14.10;99.90;;;;;;5066995;28;20508;-51
2023/08/07 01:34:52;;;;;;;4.67;2.67;;;14.00;99.90;;;;;;5067879;28;20563;-51
2023/08/07 01:37:21;;;;;;;3.53;2.27;;;14.00;99.90;;;;;;5067774;28;20923;-52
2023/08/07 01:39:50;;;;;;;4.70;2.40;;;14.00;99.90;;;;;;5066824;28;20473;-52
2023/08/07 01:42:16;;;;;;;4.30;2.70;;;14.00;99.90;;;;;;5070633;28;20512;-51
2023/08/07 01:44:43;;;;;;;7.20;3.30;;;14.00;99.90;;;;;;5070635;28;20532;-51
2023/08/07 01:47:10;;;;;;;3.33;2.20;;;13.90;99.90;;;;;;5063756;28;20883;-51
2023/08/07 01:49:38;;;;;;;5.57;2.20;;;13.90;99.90;;;;;;5065097;28;20493;-51
2023/08/07 01:52:06;;;;;;;2.60;2.40;;;13.90;99.90;;;;;;5065987;28;20497;-51
2023/08/07 01:54:33;;;;;;;4.30;2.47;;;13.90;99.90;;;;;;5063871;28;20499;-51
2023/08/07 01:57:00;;;;;;;3.20;2.50;;;13.90;99.90;;;;;;5063497;28;20516;-51
2023/08/07 01:59:26;;;;;;;4.40;2.70;;;13.90;99.90;;;;;;5063141;28;20499;-51
2023/08/07 02:01:53;;;;;;;4.73;2.80;;;13.90;99.90;;;;;;5065286;28;21006;-50
2023/08/07 02:04:19;;;;;;;7.43;3.10;;;13.90;99.90;;;;;;5068826;28;20492;-51
2023/08/07 02:06:46;;;;;;;4.77;2.20;;;14.00;99.90;;;;;;5069859;28;20453;-51
2023/08/07 02:09:12;;;;;;;3.43;2.63;;;14.00;99.90;;;;;;5068304;28;20501;-52
2023/08/07 02:11:40;;;;;;;4.93;3.17;;;14.00;99.90;;;;;;5068736;28;21046;-52
2023/08/07 02:14:07;;;;;;;4.30;3.40;;;14.00;99.90;;;;;;5065990;28;20492;-51
2023/08/07 02:16:33;;;;;;;3.97;2.90;;;14.00;99.90;;;;;;5067552;28;20504;-50
2023/08/07 02:19:00;;;;;;;2.80;2.60;;;14.00;99.90;;;;;;5068872;28;20907;-50
2023/08/07 02:21:26;;;;;;;5.47;2.90;;;14.10;99.90;;;;;;5071733;28;20519;-50
2023/08/07 02:23:53;;;;;;;3.60;3.30;;;14.10;99.90;;;;;;5068939;28;20548;-50
2023/08/07 02:26:19;;;;;;;6.27;3.63;;;14.10;99.90;;;;;;5069038;28;20548;-51
2023/08/07 02:28:47;;;;;;;7.07;3.70;;;14.10;99.90;;;;;;5069740;28;20484;-50
2023/08/07 02:31:14;;;;;;;6.17;3.50;;;14.10;99.90;;;;;;5070335;28;20515;-51
2023/08/07 02:33:41;;;;;;;6.93;4.00;;;14.10;99.90;;;;;;5072268;28;20485;-50
2023/08/07 02:36:07;;;;;;;7.57;3.57;;;14.10;99.90;;;;;;5071868;28;20999;-50
2023/08/07 02:38:34;;;;;;;7.70;3.90;;;14.10;99.90;;;;;;5069536;28;20983;-51
2023/08/07 02:41:01;;;;;;;6.53;3.10;;;14.20;99.90;;;;;;5072872;28;21069;-51
2023/08/07 02:43:28;;;;;;;10.70;3.80;;;14.20;99.90;;;;;;5070308;28;20996;-51
2023/08/07 02:45:56;;;;;;;4.27;3.80;;;14.20;99.90;;;;;;5073116;28;20497;-51
2023/08/07 02:48:22;;;;;;;6.93;4.77;;;14.20;1.40;;;;;;5073661;28;20977;-52
2023/08/07 02:50:51;;;;;;;5.50;3.90;;;14.20;99.90;;;;;;5070504;28;20523;-51
2023/08/07 02:53:17;;;;;;;9.87;3.67;;;14.30;99.90;;;;;;5069788;28;20961;-50
2023/08/07 02:55:44;;;;;;;15.33;5.40;;;14.30;99.90;;;;;;5069137;28;20547;-51
2023/08/07 02:58:11;;;;;;;6.70;3.63;;;14.30;99.90;;;;;;5072387;28;20476;-51
2023/08/07 03:00:37;;;;;;;10.60;3.63;;;14.30;99.90;;;;;;5072662;28;20546;-50
2023/08/07 03:03:05;;;;;;;7.63;3.87;;;14.30;99.90;;;;;;5069624;28;20493;-53
2023/08/07 03:05:32;;;;;;;6.63;3.90;;;14.30;99.90;;;;;;5071805;28;20543;-53
2023/08/07 03:07:58;;;;;;;6.40;3.60;;;14.30;99.90;;;;;;5074213;28;20465;-52
2023/08/07 03:10:25;;;;;;;5.03;3.30;;;14.30;99.90;;;;;;5072479;28;20496;-53
2023/08/07 03:12:51;;;;;;;4.77;3.80;;;14.30;99.90;;;;;;5076895;28;20560;-52
2023/08/07 03:15:18;;;;;;;12.77;4.63;;;14.30;99.90;;;;;;5071943;28;20544;-52
2023/08/07 03:17:45;;;;;;;6.10;3.90;;;14.30;99.90;;;;;;5072438;28;20600;-53
2023/08/07 03:20:13;;;;;;;7.27;3.80;;;14.30;99.90;;;;;;5069653;28;20908;-53
2023/08/07 03:22:39;;;;;;;5.87;3.70;;;14.30;99.90;;;;;;5073720;28;20500;-52
2023/08/07 03:25:07;;;;;;;9.67;4.20;;;14.30;99.90;;;;;;5072189;28;20475;-53
2023/08/07 03:27:33;;;;;;;5.37;3.60;;;14.30;99.90;;;;;;5072342;28;20481;-52
2023/08/07 03:30:00;;;;;;;11.93;3.97;;;14.30;99.90;;;;;;5070518;28;20504;-53
2023/08/07 03:32:26;;;;;;;11.50;3.97;;;14.40;99.90;;;;;;5072035;28;20480;-53
2023/08/07 03:34:53;;;;;;;7.00;4.77;;;14.40;99.90;;;;;;5070165;28;20500;-53
2023/08/07 03:37:21;;;;;;;7.33;3.43;;;14.40;99.90;;;;;;5064348;28;20573;-53
2023/08/07 03:39:47;;;;;;;8.27;3.80;;;14.40;99.90;;;;;;5073635;28;20469;-53
2023/08/07 03:42:15;;;;;;;13.23;4.37;;;14.40;99.90;;;;;;5066841;28;20539;-53
2023/08/07 03:44:42;;;;;;;7.47;4.33;;;14.50;99.90;;;;;;5071603;28;20974;-53
2023/08/07 03:47:08;;;;;;;6.23;3.80;;;14.50;99.90;;;;;;5072767;28;20461;-53
2023/08/07 03:49:35;;;;;;;5.43;3.80;;;14.50;99.90;;;;;;5069928;28;20488;-53
2023/08/07 03:52:01;;;;;;;10.13;4.10;;;14.50;99.90;;;;;;5072338;28;20485;-53
2023/08/07 03:54:29;;;;;;;8.47;4.20;;;14.50;99.90;;;;;;5068847;28;20500;-53
2023/08/07 03:56:56;;;;;;;11.00;4.00;;;14.50;99.90;;;;;;5064001;28;20990;-53
2023/08/07 03:59:22;;;;;;;8.37;3.37;;;14.50;99.90;;;;;;5068998;28;21059;-53
2023/08/07 04:01:49;;;;;;;6.63;3.60;;;14.50;99.90;;;;;;5069723;28;20531;-53
2023/08/07 04:04:15;;;;;;;8.60;3.67;;;14.50;99.90;;;;;;5070895;28;20476;-52
2023/08/07 04:06:43;;;;;;;8.57;3.57;;;14.50;99.90;;;;;;5070634;28;20495;-53
2023/08/07 04:09:10;;;;;;;4.47;3.27;;;14.50;99.90;;;;;;5071266;28;20449;-53
2023/08/07 04:11:38;;;;;;;9.00;3.33;;;14.50;99.90;;;;;;5070969;28;20492;-53
2023/08/07 04:14:05;;;;;;;5.90;3.60;;;14.50;99.90;;;;;;5078737;28;20518;-54
2023/08/07 04:16:32;;;;;;;6.90;3.67;;;14.50;99.90;;;;;;5079704;28;20558;-56
2023/08/07 04:18:58;;;;;;;7.20;3.67;;;14.50;99.90;;;;;;5082695;28;20476;-53
2023/08/07 04:21:25;;;;;;;4.43;2.80;;;14.50;99.90;;;;;;5075875;28;20485;-54
2023/08/07 04:23:51;;;;;;;8.90;3.80;;;14.60;99.90;;;;;;5077237;28;20503;-54
2023/08/07 04:26:18;;;;;;;5.10;3.40;;;14.50;99.90;;;;;;5071581;28;20986;-53
2023/08/07 04:28:45;;;;;;;4.27;3.23;;;14.50;99.90;;;;;;5067893;28;20974;-53
2023/08/07 04:31:12;;;;;;;4.03;3.50;;;14.60;99.90;;;;;;5068190;28;20520;-53
2023/08/07 04:33:39;;;;;;;5.80;3.70;;;14.60;99.90;;;;;;5062135;28;20485;-53
2023/08/07 04:36:06;;;;;;;4.13;3.30;;;14.60;99.90;;;;;;5064901;28;20462;-53
2023/08/07 04:38:33;;;;;;;5.30;3.43;;;14.60;99.90;;;;;;5067342;28;20512;-53
2023/08/07 04:40:59;;;;;;;3.23;2.93;;;14.60;99.90;;;;;;5072645;28;20493;-53
2023/08/07 04:43:27;;;;;;;5.80;3.53;;;14.60;99.90;;;;;;5070037;28;20461;-53
2023/08/07 04:45:55;;;;;;;7.13;3.20;;;14.60;99.90;;;;;;5063685;28;20461;-53
2023/08/07 04:48:25;;;;;;;7.10;3.50;;;14.60;99.90;;;;;;5065119;28;20484;-53
2023/08/07 04:50:51;;;;;;;5.50;3.07;;;14.60;99.90;;;;;;5064014;28;20487;-53
2023/08/07 04:53:18;;;;;;;3.93;3.10;;;14.60;99.90;;;;;;5071019;28;20574;-53
2023/08/07 04:55:44;;;;;;;8.23;3.60;;;14.70;99.90;;;;;;5069446;28;20481;-54
2023/08/07 04:58:11;;;;;;;7.90;3.90;;;14.70;99.90;;;;;;5068682;28;20530;-53
2023/08/07 05:00:37;;;;;;;9.03;3.50;;;14.70;99.90;;;;;;5062388;28;20488;-54
2023/08/07 05:03:05;;;;;;;7.83;3.23;;;14.70;99.90;;;;;;5056696;28;20478;-53
2023/08/07 05:05:32;;;;;;;3.50;3.10;;;14.70;99.90;;;;;;5070023;28;20492;-54
2023/08/07 05:07:58;;;;;;;9.30;3.40;;;14.70;99.90;;;;;;5069801;28;20484;-53
2023/08/07 05:10:25;;;;;;;4.30;3.10;;;14.70;99.90;;;;;;5070834;28;20453;-54
2023/08/07 05:12:55;;;;;;;4.73;3.13;;;14.70;99.90;;;;;;5069161;28;20530;-53
2023/08/07 05:15:21;;;;;;;5.40;3.13;;;14.70;99.90;;;;;;5061512;28;20951;-53
2023/08/07 05:17:48;;;;;;;9.83;3.67;;;14.70;99.90;;;;;;5066856;28;20939;-54
2023/08/07 05:20:16;;;;;;;7.30;3.40;;;14.70;99.90;;;;;;5068196;28;20500;-53
2023/08/07 05:22:42;;;;;;;7.53;3.50;;;14.70;99.90;;;;;;5067424;28;20534;-53
2023/08/07 05:25:11;;;;;;;7.57;3.10;;;14.70;99.90;;;;;;5068032;28;20552;-53
2023/08/07 05:27:37;;;;;;;10.23;3.40;;;14.70;99.90;;;;;;5066480;28;20531;-53
2023/08/07 05:30:05;;;;;;;7.23;4.13;;;14.80;99.90;;;;;;5067528;28;20514;-53
2023/08/07 05:32:32;;;;;;;3.47;3.17;;;14.80;99.90;;;;;;5068135;28;20560;-53
2023/08/07 05:34:59;;;;;;;5.07;3.03;;;14.80;99.90;;;;;;5068821;28;20738;-53
2023/08/07 05:37:27;;;;;;;10.80;3.20;;;14.80;99.90;;;;;;5067088;28;20555;-52
2023/08/07 05:39:53;;;;;;;7.03;3.83;;;14.80;99.90;;;;;;5070080;28;20516;-53
2023/08/07 05:42:20;;;;;;;3.53;3.20;;;14.80;99.90;;;;;;5065658;28;20516;-54
2023/08/07 05:44:46;;;;;;;5.77;3.13;;;14.90;99.90;;;;;;5060700;28;21421;-53
2023/08/07 05:47:13;;;;;;;10.87;3.67;;;14.90;99.90;;;;;;5065730;28;20548;-53
2023/08/07 05:49:39;;;;;;;7.40;3.33;;;14.90;99.90;;;;;;5060201;28;20480;-52
2023/08/07 05:52:08;;;;;;;6.73;3.00;;;14.90;99.90;;;;;;5067940;28;20508;-53
2023/08/07 05:54:36;;;;;;;9.53;2.70;;;14.90;99.90;;;;;;5071580;28;20472;-53
2023/08/07 05:57:02;;;;;;;5.30;3.47;;;15.00;99.90;;;;;;5073283;28;20942;-52
2023/08/07 05:59:29;;;;;;;7.93;3.00;;;15.00;99.90;;;;;;5070933;28;22430;-52
2023/08/07 06:01:56;;;;;;;7.17;3.43;;;15.00;99.90;;;;;;5068738;28;20484;-53
2023/08/07 06:04:22;;;;;;;7.33;3.10;;;15.10;99.90;;;;;;5073245;28;20495;-54
2023/08/07 06:06:49;;;;;;;6.00;2.93;;;15.10;99.90;;;;;;5068801;28;21000;-53
2023/08/07 06:09:16;;;;;;;7.53;3.03;;;15.20;99.90;;;;;;5062978;28;20464;-53
2023/08/07 06:11:43;;;;;;;9.23;2.60;;;15.20;99.90;;;;;;5072697;28;21001;-53
2023/08/07 06:14:10;;;;;;;6.40;2.53;;;15.10;99.90;;;;;;5070644;28;20982;-52
2023/08/07 06:16:37;;;;;;;8.03;2.73;;;15.10;99.90;;;;;;5073032;28;20958;-52
2023/08/07 06:19:04;;;;;;;8.13;3.10;;;15.20;99.90;;;;;;5067236;28;20477;-53
2023/08/07 06:21:30;;;;;;;2.93;2.33;;;15.20;99.90;;;;;;5070231;28;20601;-53
2023/08/07 06:23:57;;;;;;;5.20;2.93;;;15.20;99.90;;;;;;5065101;28;20461;-50
2023/08/07 06:26:24;;;;;;;3.20;2.70;;;15.30;20.10;;;;;;5066623;28;20461;-51
2023/08/07 06:28:52;;;;;;;6.20;3.00;;;15.30;99.90;;;;;;5070792;28;20532;-51
2023/08/07 06:31:19;;;;;;;4.60;3.00;;;15.30;84.30;;;;;;5069789;28;20890;-50
2023/08/07 06:33:45;;;;;;;2.53;2.33;;;15.30;99.90;;;;;;5072415;28;20456;-52
2023/08/07 06:36:12;;;;;;;7.63;2.50;;;15.30;76.20;;;;;;5070076;28;21017;-50
2023/08/07 06:38:38;;;;;;;8.40;2.70;;;15.40;22.00;;;;;;5065436;28;20513;-51
2023/08/07 06:41:06;;;;;;;5.40;2.50;;;15.40;23.70;;;;;;5065972;28;20572;-51
2023/08/07 06:43:33;;;;;;;3.57;2.17;;;15.50;26.00;;;;;;5066066;28;20499;-51
2023/08/07 06:46:00;;;;;;;5.90;2.90;;;15.50;31.70;;;;;;5064982;28;20502;-52
2023/08/07 06:48:27;;;;;;;3.07;2.50;;;15.50;30.40;;;;;;5068692;28;20549;-50
2023/08/07 06:50:54;;;;;;;4.47;2.70;;;15.60;37.70;;;;;;5072258;28;21083;-50
2023/08/07 06:53:20;;;;;;;5.17;2.20;;;15.60;43.80;;;;;;5072543;28;20488;-51
2023/08/07 06:55:47;;;;;;;2.80;2.30;;;15.70;32.50;;;;;;5072122;28;20544;-51
2023/08/07 06:58:14;;;;;;;3.37;2.07;;;15.80;44.10;;;;;;5071197;28;20492;-52
2023/08/07 07:00:41;;;;;;;3.47;2.80;;;15.80;43.40;;;;;;5067888;28;20485;-51
2023/08/07 07:03:09;;;;;;;5.10;1.93;;;15.80;45.80;;;;;;5070480;28;20611;-50
2023/08/07 07:05:36;;;;;;;4.93;2.30;;;15.90;57.40;;;;;;5072360;28;20449;-51
2023/08/07 07:08:03;;;;;;;2.90;2.07;;;15.90;55.20;;;;;;5073932;28;20966;-50
2023/08/07 07:10:29;;;;;;;5.27;1.93;;;16.00;60.60;;;;;;5063539;28;20574;-52
2023/08/07 07:12:56;;;;;;;4.00;2.30;;;16.00;68.10;;;;;;5060570;28;20462;-51
2023/08/07 07:15:22;;;;;;;3.43;2.30;;;16.10;68.30;;;;;;5065838;28;20539;-51
2023/08/07 07:17:49;;;;;;;6.83;2.07;;;16.10;68.30;;;;;;5064592;28;20519;-51
2023/08/07 07:20:17;;;;;;;3.10;2.20;;;16.20;68.30;;;;;;5057840;28;20619;-51
2023/08/07 07:22:43;;;;;;;5.80;1.97;;;16.30;73.30;;;;;;5066328;28;20489;-51
2023/08/07 07:25:10;;;;;;;3.60;1.87;;;16.30;77.10;;;;;;5068504;28;20481;-51
2023/08/07 07:27:37;;;;;;;5.37;2.20;;;16.40;87.90;;;;;;5069014;28;20472;-51
2023/08/07 07:30:04;;;;;;;2.13;1.60;;;16.40;99.40;;;;;;5061084;28;21055;-51
2023/08/07 07:32:31;;;;;;;3.60;2.37;;;16.40;90.70;;;;;;5068166;28;20513;-51
2023/08/07 07:34:57;;;;;;;2.30;1.53;;;16.40;92.00;;;;;;5079976;28;20454;-53
2023/08/07 07:37:25;;;;;;;8.73;2.10;;;16.50;94.90;;;;;;5083607;28;20453;-51
2023/08/07 07:39:52;;;;;;;4.77;2.00;;;16.50;92.20;;;;;;5081894;28;20469;-51
2023/08/07 07:42:18;;;;;;;2.83;2.23;;;16.50;95.00;;;;;;5076428;28;20506;-51
2023/08/07 07:44:45;;;;;;;2.73;1.70;;;16.50;99.90;;;;;;5076667;28;20937;-53
2023/08/07 07:47:11;;;;;;;4.13;2.00;;;16.60;98.70;;;;;;5075302;28;20497;-52
2023/08/07 07:49:38;;;;;;;6.23;1.70;;;16.60;99.90;;;;;;5067673;28;20539;-51
2023/08/07 07:52:06;;;;;;;5.90;2.60;;;16.70;99.90;;;;;;5070274;28;20554;-50
2023/08/07 07:54:35;;;;;;;9.10;1.60;;;16.70;99.90;;;;;;5071656;28;20456;-51
2023/08/07 07:57:02;;;;;;;5.40;2.10;;;16.70;99.90;;;;;;5062228;28;20498;-51
2023/08/07 07:59:29;;;;;;;6.67;2.27;;;16.80;99.90;;;;;;5064692;28;20513;-51
2023/08/07 08:01:55;;;;;;;5.03;1.80;;;16.80;99.90;;;;;;5070327;28;20522;-52
2023/08/07 08:04:22;;;;;;;2.47;1.83;;;16.80;99.90;;;;;;5066741;28;20548;-51
2023/08/07 08:06:48;;;;;;;8.23;1.60;;;16.80;99.90;;;;;;5065866;28;20488;-51
2023/08/07 08:09:15;;;;;;;6.70;1.70;;;16.80;99.90;;;;;;5065495;28;20460;-51
2023/08/07 08:11:43;;;;;;;4.80;2.23;;;16.80;99.90;;;;;;5068550;28;20473;-52
2023/08/07 08:14:10;;;;;;;7.20;2.07;;;16.70;99.90;;;;;;5064958;28;20552;-51
2023/08/07 08:16:36;;;;;;;11.67;2.53;;;16.70;99.90;;;;;;5068036;28;20492;-51
2023/08/07 08:19:03;;;;;;;9.50;1.70;;;16.70;99.90;;;;;;5070189;28;20512;-51
2023/08/07 08:21:30;;;;;;;3.53;1.50;;;16.70;99.90;;;;;;5062658;28;20509;-51
2023/08/07 08:23:57;;;;;;;1.80;1.70;;;16.70;99.10;;;;;;5065129;28;20492;-50
2023/08/07 08:26:23;;;;;;;2.50;1.90;;;16.70;92.20;;;;;;5067105;28;20895;-52
2023/08/07 08:28:52;;;;;;;4.33;2.60;;;16.70;96.40;;;;;;5067796;28;20449;-53
2023/08/07 08:31:21;;;;;;;5.97;1.97;;;16.70;90.30;;;;;;5068214;28;20526;-53
2023/08/07 08:33:47;;;;;;;5.33;2.63;;;16.80;84.00;;;;;;5061780;28;20452;-52
2023/08/07 08:36:14;;;;;;;5.43;2.07;;;16.90;90.30;;;;;;5065194;28;20488;-52
2023/08/07 08:38:40;;;;;;;9.77;2.00;;;17.00;99.90;;;;;;5064114;28;20503;-52
2023/08/07 08:41:09;;;;;;;5.17;2.17;;;17.10;99.90;;;;;;5067884;28;20501;-52
2023/08/07 08:43:36;;;;;;;3.27;2.10;;;17.20;99.90;;;;;;5060926;28;20457;-54
2023/08/07 08:46:05;;;;;;;4.40;1.80;;;17.10;99.90;;;;;;5067468;28;20463;-53
2023/08/07 08:48:36;;;;;;;9.73;2.00;;;17.20;99.90;;;;;;5062537;28;20457;-52
2023/08/07 08:51:04;;;;;;;5.27;2.23;;;17.20;99.90;;;;;;5064073;28;20472;-52
2023/08/07 08:53:32;;;;;;;8.03;2.33;;;17.20;99.90;;;;;;5061074;28;20506;-53
2023/08/07 08:55:58;;;;;;;3.67;2.00;;;17.20;99.90;;;;;;5063070;28;20556;-54
2023/08/07 08:58:25;;;;;;;6.47;1.87;;;17.20;99.90;;;;;;5063446;28;20457;-52
2023/08/07 09:00:53;;;;;;;3.70;2.37;;;17.30;99.90;;;;;;5065961;28;21009;-53
2023/08/07 09:03:21;;;;;;;5.03;2.00;;;17.40;99.90;;;;;;5065886;28;20504;-52
2023/08/07 09:05:50;;;;;;;8.67;1.97;;;17.50;99.90;;;;;;5065550;28;20523;-50
2023/08/07 09:08:17;;;;;;;4.23;2.07;;;17.60;99.90;;;;;;5062321;28;20530;-50
2023/08/07 09:10:44;;;;;;;3.27;1.63;;;17.60;99.90;;;;;;5067737;28;21551;-51
2023/08/07 09:13:15;;;;;;;4.83;1.90;;;17.60;99.90;;;;;;5065846;28;20491;-52
2023/08/07 09:15:47;;;;;;;4.17;2.20;;;17.70;99.90;;;;;;5058318;28;21051;-52
2023/08/07 09:18:14;;;;;;;5.97;2.57;;;17.70;99.90;;;;;;5059983;28;20460;-52
2023/08/07 09:20:43;;;;;;;6.00;1.77;;;17.70;99.90;;;;;;5065778;28;20481;-51
2023/08/07 09:23:09;;;;;;;6.03;2.40;;;17.60;99.90;;;;;;5064134;28;20540;-52
2023/08/07 09:25:36;;;;;;;2.80;1.87;;;17.50;99.90;;;;;;5066274;28;20461;-51
2023/08/07 09:28:04;;;;;;;3.60;2.00;;;17.50;99.90;;;;;;5068730;28;20488;-50
2023/08/07 09:30:32;;;;;;;6.10;2.67;;;17.40;99.90;;;;;;5066725;28;20460;-51
2023/08/07 09:32:59;;;;;;;3.60;1.53;;;17.30;99.90;;;;;;5070036;28;20484;-51
2023/08/07 09:35:26;;;;;;;6.00;1.87;;;17.20;99.90;;;;;;5063104;28;20457;-51
2023/08/07 09:37:54;;;;;;;2.43;1.50;;;17.10;99.90;;;;;;5065860;28;20556;-52
2023/08/07 09:40:21;;;;;;;4.90;2.13;;;17.00;99.90;;;;;;5069005;28;20476;-52
2023/08/07 09:42:51;;;;;;;6.40;1.97;;;17.00;99.90;;;;;;5068587;28;20840;-51
2023/08/07 09:45:22;;;;;;;5.37;1.70;;;17.10;99.90;;;;;;5065252;28;20468;-52
2023/08/07 09:47:58;;;;;;;3.80;1.73;;;17.20;99.90;;;;;;5066307;28;20466;-51
2023/08/07 09:50:25;;;;;;;2.83;2.00;;;17.30;99.90;;;;;;5062482;28;20457;-51
2023/08/07 09:52:52;;;;;;;10.10;2.40;;;17.40;99.90;;;;;;5070403;28;20464;-51
2023/08/07 09:55:20;;;;;;;2.63;1.63;;;17.40;99.90;;;;;;5068390;28;21045;-53
2023/08/07 09:57:46;;;;;;;4.50;2.33;;;17.60;99.90;;;;;;5062197;28;20488;-50
2023/08/07 10:00:15;;;;;;;4.63;2.00;;;17.70;99.90;;;;;;5069148;28;20580;-52
2023/08/07 10:02:42;;;;;;;3.70;1.60;;;17.80;99.90;;;;;;5061688;28;20950;-52
2023/08/07 10:05:10;;;;;;;2.87;1.97;;;17.80;99.90;;;;;;5070628;28;20807;-53
2023/08/07 10:07:38;;;;;;;3.70;1.60;;;17.70;99.90;;;;;;5067085;28;20504;-52
2023/08/07 10:10:06;;;;;;;4.70;2.17;;;17.60;99.90;;;;;;5067437;28;20481;-53
2023/08/07 10:12:35;;;;;;;1.60;1.40;;;17.50;99.90;;;;;;5067942;28;20565;-53
2023/08/07 10:15:02;;;;;;;14.13;2.57;;;17.50;99.90;;;;;;5066649;28;20496;-53
2023/08/07 10:17:29;;;;;;;6.90;2.20;;;17.50;99.90;;;;;;5069625;28;20957;-53
2023/08/07 10:19:56;;;;;;;6.57;2.40;;;17.50;99.90;;;;;;5067334;28;20774;-54
2023/08/07 10:22:26;;;;;;;5.17;1.90;;;17.50;99.90;;;;;;5063899;28;20516;-54
2023/08/07 10:24:54;;;;;;;5.10;1.73;;;17.60;99.90;;;;;;5060723;28;20464;-53
2023/08/07 10:27:24;;;;;;;4.70;1.63;;;17.80;99.90;;;;;;5067082;28;21068;-54
2023/08/07 10:29:54;;;;;;;3.60;1.90;;;18.10;99.90;;;;;;5062831;28;20464;-54
2023/08/07 10:32:23;;;;;;;4.23;2.10;;;18.30;99.90;;;;;;5068831;28;20919;-53
2023/08/07 10:34:50;;;;;;;9.03;2.27;;;18.40;99.90;;;;;;5062463;28;20548;-53
2023/08/07 10:37:42;;;;;;;4.70;1.90;;;18.50;99.90;;;;;;5064448;28;20500;-53
2023/08/07 10:40:10;;;;;;;4.60;1.67;;;18.40;99.90;;;;;;5061822;28;20568;-53
2023/08/07 10:42:59;;;;;;;6.57;1.87;;;18.50;99.90;;;;;;5067475;28;20863;-54
2023/08/07 10:45:28;;;;;;;2.40;1.67;;;18.50;99.90;;;;;;5056976;28;20606;-53
2023/08/07 10:47:59;;;;;;;7.17;1.80;;;18.40;99.90;;;;;;5069227;28;20552;-54
2023/08/07 10:50:30;;;;;;;6.20;2.07;;;18.30;99.90;;;;;;5068740;28;20972;-53
2023/08/07 10:52:57;;;;;;;5.10;1.93;;;17.90;99.90;;;;;;5067468;28;20457;-53
2023/08/07 10:55:24;;;;;;;4.73;1.90;;;17.10;85.60;;;;;;5067375;28;20557;-53
2023/08/07 10:57:50;;;;;;;7.30;1.70;;;16.60;53.30;;;;;;5066201;28;20456;-53
2023/08/07 11:00:18;;;;;;;4.00;2.00;;;16.60;26.40;;;;;;5066971;28;20572;-54
2023/08/07 11:02:49;;;;;;;3.20;1.70;;;16.70;87.90;;;;;;5065284;28;21032;-54
2023/08/07 11:05:18;;;;;;;2.17;1.53;;;16.90;41.80;;;;;;5069687;28;20460;-53
2023/08/07 11:07:45;;;;;;;5.53;1.77;;;17.10;50.80;;;;;;5064570;28;20484;-53
2023/08/07 11:10:14;;;;;;;7.03;2.20;;;17.20;56.80;;;;;;5065482;28;20886;-53
2023/08/07 11:12:41;;;;;;;3.90;2.23;;;17.30;80.00;;;;;;5068332;28;20480;-53
2023/08/07 11:15:14;;;;;;;7.13;2.27;;;17.30;98.50;;;;;;5067898;28;20490;-54
2023/08/07 11:17:41;;;;;;;19.50;2.27;;;17.40;99.90;;;;;;5068353;28;20456;-53
2023/08/07 11:20:10;;;;;;;4.93;2.37;;;17.40;99.90;;;;;;5065880;28;20481;-53
2023/08/07 11:22:39;;;;;;;7.17;1.73;;;17.60;99.90;;;;;;5066390;28;20998;-53
2023/08/07 11:25:10;;;;;;;8.40;2.10;;;17.70;99.90;;;;;;5068167;28;20491;-53
2023/08/07 11:27:37;;;;;;;7.80;2.10;;;17.70;99.90;;;;;;5068146;28;20460;-54
2023/08/07 11:30:05;;;;;;;5.50;2.20;;;17.60;99.90;;;;;;5065922;28;20511;-54
2023/08/07 11:32:32;;;;;;;8.90;3.10;;;17.50;99.90;;;;;;5065212;28;20490;-53
2023/08/07 11:34:58;;;;;;;6.40;2.40;;;17.50;99.90;;;;;;5069052;28;20489;-54
2023/08/07 11:37:26;;;;;;;3.07;1.80;;;17.40;99.90;;;;;;5067650;28;20506;-52
2023/08/07 11:39:53;;;;;;;6.13;2.00;;;17.50;99.90;;;;;;5067021;28;20576;-52
2023/08/07 11:42:22;;;;;;;5.43;2.20;;;17.70;99.90;;;;;;5065348;28;20574;-53
2023/08/07 11:44:49;;;;;;;6.27;2.40;;;17.70;99.90;;;;;;5071509;28;21018;-54
2023/08/07 11:47:17;;;;;;;6.80;2.13;;;17.80;99.90;;;;;;5073264;28;20469;-53
2023/08/07 11:49:43;;;;;;;8.30;2.20;;;17.80;99.90;;;;;;5072919;28;20933;-53
2023/08/07 11:52:10;;;;;;;8.47;2.60;;;18.00;99.90;;;;;;5072310;28;20496;-54
2023/08/07 11:54:38;;;;;;;10.97;2.30;;;18.00;99.90;;;;;;5071745;28;20472;-54
2023/08/07 11:57:17;;;;;;;9.07;2.60;;;18.10;99.90;;;;;;5063618;28;20465;-54
2023/08/07 11:59:42;;;;;;;6.33;2.73;;;18.10;99.90;;;;;;5063110;28;20467;-54
2023/08/07 12:02:11;;;;;;;5.33;2.10;;;18.20;99.90;;;;;;5072955;28;20473;-54
2023/08/07 12:04:37;;;;;;;4.90;2.30;;;18.30;99.90;;;;;;5072331;28;20202;-54
2023/08/07 12:07:04;;;;;;;14.20;2.87;;;18.40;99.90;;;;;;5072731;28;20946;-54
2023/08/07 12:09:31;;;;;;;5.87;2.37;;;18.70;99.90;;;;;;5072100;28;20522;-53
2023/08/07 12:11:59;;;;;;;9.37;2.60;;;18.90;99.90;;;;;;5072095;28;20492;-54
2023/08/07 12:14:29;;;;;;;11.50;2.97;;;19.20;99.90;;;;;;5060382;28;20492;-54
2023/08/07 12:16:57;;;;;;;9.97;2.90;;;19.30;99.90;;;;;;5069738;28;20476;-53
2023/08/07 12:19:23;;;;;;;5.50;2.10;;;19.40;99.90;;;;;;5069777;28;20462;-54
2023/08/07 12:21:50;;;;;;;9.57;2.50;;;19.60;99.90;;;;;;5071323;28;20492;-53
2023/08/07 12:24:20;;;;;;;7.10;2.47;;;19.60;21.00;;;;;;5067131;28;20500;-54
2023/08/07 12:26:46;;;;;;;6.17;2.20;;;19.80;82.30;;;;;;5067751;28;20449;-53
2023/08/07 12:29:14;;;;;;;8.77;2.67;;;20.00;40.40;;;;;;5067008;28;20559;-53
2023/08/07 12:31:41;;;;;;;9.10;1.90;;;20.10;57.00;;;;;;5066479;28;20566;-53
2023/08/07 12:34:08;;;;;;;11.20;2.43;;;20.10;70.20;;;;;;5070931;28;20485;-54
2023/08/07 12:36:35;;;;;;;4.37;2.07;;;20.20;67.50;;;;;;5068437;28;20461;-54
2023/08/07 12:39:01;;;;;;;7.90;2.40;;;20.20;77.80;;;;;;5066315;28;20453;-54
2023/08/07 12:41:28;;;;;;;6.07;2.67;;;20.30;70.30;;;;;;5067720;28;20486;-53
2023/08/07 12:43:54;;;;;;;6.07;2.40;;;20.40;69.60;;;;;;5070219;28;20477;-54
2023/08/07 12:46:22;;;;;;;8.57;2.80;;;20.60;83.50;;;;;;5065763;28;20493;-53